Time;durP1;ratioP1;P1;durP2;ratioP2;P2;SDS_P1;SDS_P2;PMS_P1;PMS_P2;Temp;Humidity;BMP_temperature;BMP_pressure;BME280_temperature;BME280_humidity;BME280_pressure;Samples;Min_cycle;Max_cycle;Signal;HPM_P1;HPM_P2
2022/07/28 00:01:06;;;;;;;4.35;1.30;;;;;;;20.26;40.41;101569.44;5033879;27;96880;-71
2022/07/28 00:03:33;;;;;;;2.85;1.00;;;;;;;20.16;40.63;101568.25;5027879;28;97816;-71
2022/07/28 00:05:59;;;;;;;4.05;1.02;;;;;;;20.18;40.43;101562.81;5031856;28;99137;-71
2022/07/28 00:08:27;;;;;;;6.70;1.40;;;;;;;19.99;41.15;101565.78;5031935;27;96936;-71
2022/07/28 00:10:53;;;;;;;4.68;1.30;;;;;;;20.01;40.95;101571.91;5034490;27;97301;-71
2022/07/28 00:13:20;;;;;;;8.55;1.20;;;;;;;20.01;41.08;101576.41;5033792;28;98948;-72
2022/07/28 00:15:47;;;;;;;4.43;1.20;;;;;;;19.92;41.31;101572.47;5023513;28;99301;-72
2022/07/28 00:18:14;;;;;;;7.15;1.30;;;;;;;19.96;41.16;101568.63;5034023;27;97184;-71
2022/07/28 00:20:40;;;;;;;6.18;1.20;;;;;;;20.13;41.08;101571.16;5031323;27;97666;-70
2022/07/28 00:23:07;;;;;;;6.25;1.30;;;;;;;20.38;40.51;101578.56;5034163;27;99400;-72
2022/07/28 00:25:35;;;;;;;5.90;1.17;;;;;;;20.32;40.84;101570.84;5030313;27;99071;-71
2022/07/28 00:28:01;;;;;;;4.57;1.40;;;;;;;20.46;40.10;101568.19;5032662;27;97367;-72
2022/07/28 00:30:28;;;;;;;7.43;1.73;;;;;;;20.41;40.24;101574.81;5034804;28;96850;-71
2022/07/28 00:32:54;;;;;;;4.63;1.10;;;;;;;20.49;39.66;101569.81;5027307;28;98768;-72
2022/07/28 00:35:20;;;;;;;4.85;0.98;;;;;;;20.28;40.37;101572.03;5033554;28;101528;-73
2022/07/28 00:37:47;;;;;;;6.65;1.65;;;;;;;20.48;39.66;101570.78;5031395;28;97326;-71
2022/07/28 00:40:13;;;;;;;5.07;1.38;;;;;;;20.45;39.75;101573.66;5033456;28;97334;-71
2022/07/28 00:42:42;;;;;;;7.75;1.30;;;;;;;20.42;40.01;101579.22;5034894;27;101460;-72
2022/07/28 00:45:10;;;;;;;6.85;1.33;;;;;;;20.34;40.13;101571.66;5033553;27;98810;-72
2022/07/28 00:47:36;;;;;;;11.90;2.75;;;;;;;20.40;39.94;101575.78;5033394;28;97285;-70
2022/07/28 00:50:05;;;;;;;4.45;1.00;;;;;;;20.34;40.35;101573.47;5035073;27;96863;-70
2022/07/28 00:52:33;;;;;;;5.30;1.10;;;;;;;20.51;40.35;101573.25;5032090;28;98329;-72
2022/07/28 00:54:59;;;;;;;7.32;1.63;;;;;;;20.43;40.55;101576.44;5033478;27;99277;-74
2022/07/28 00:57:26;;;;;;;9.75;1.35;;;;;;;20.46;40.35;101580.75;5034176;27;97353;-72
2022/07/28 00:59:54;;;;;;;6.25;1.40;;;;;;;20.28;40.46;101572.84;5031565;27;97807;-70
2022/07/28 01:02:21;;;;;;;8.75;1.40;;;;;;;20.23;41.47;101574.97;5033936;27;100099;-72
2022/07/28 01:04:48;;;;;;;6.93;1.40;;;;;;;20.02;42.30;101573.63;5031987;28;100585;-72
2022/07/28 01:07:32;;;;;;;6.15;1.98;;;;;;;20.06;42.19;101572.50;5028988;27;97552;-71
2022/07/28 01:10:05;;;;;;;4.15;1.20;;;;;;;20.11;42.85;101580.25;5031150;27;97233;-72
2022/07/28 01:12:48;;;;;;;4.28;1.25;;;;;;;20.10;43.54;101575.81;5033960;28;102352;-73
2022/07/28 01:15:23;;;;;;;8.68;1.50;;;;;;;19.99;43.95;101575.63;5032848;27;99091;-71
2022/07/28 01:17:59;;;;;;;7.97;1.60;;;;;;;19.67;44.64;101575.78;5030414;28;96920;-72
2022/07/28 01:20:34;;;;;;;8.68;1.25;;;;;;;19.61;45.32;101575.28;5034074;28;98490;-71
2022/07/28 01:23:34;;;;;;;3.78;0.98;;;;;;;19.58;45.93;101575.47;5032321;28;101287;-71
2022/07/28 01:26:16;;;;;;;4.95;1.48;;;;;;;19.36;46.07;101578.53;5029571;28;97727;-74
2022/07/28 01:28:58;;;;;;;3.20;1.25;;;;;;;19.41;46.21;101579.13;5031313;28;96790;-74
2022/07/28 01:31:30;;;;;;;5.57;1.48;;;;;;;19.22;46.72;101579.34;5031961;28;96862;-73
2022/07/28 01:34:00;;;;;;;8.55;1.67;;;;;;;19.09;47.03;101581.00;5034238;27;98221;-73
2022/07/28 01:36:31;;;;;;;7.00;1.50;;;;;;;18.87;47.55;101578.69;5031111;28;99256;-73
2022/07/28 01:39:00;;;;;;;8.32;1.50;;;;;;;19.00;47.12;101586.88;5032120;28;97314;-73
2022/07/28 01:41:29;;;;;;;3.45;1.30;;;;;;;19.13;46.78;101585.22;5033804;28;96844;-74
2022/07/28 01:43:59;;;;;;;6.30;1.55;;;;;;;18.90;47.63;101578.53;5031138;28;97949;-73
2022/07/28 01:46:27;;;;;;;2.92;1.15;;;;;;;18.97;47.38;101579.88;5029731;27;101733;-74
2022/07/28 01:48:56;;;;;;;9.50;1.83;;;;;;;18.95;47.58;101583.63;5025343;28;97422;-74
2022/07/28 01:51:26;;;;;;;6.20;1.40;;;;;;;19.05;47.83;101585.66;5027605;28;97220;-74
2022/07/28 01:53:55;;;;;;;8.27;1.48;;;;;;;19.04;47.79;101588.44;5027862;28;99564;-73
2022/07/28 01:56:23;;;;;;;5.90;1.70;;;;;;;19.12;47.35;101580.81;5032917;27;99411;-73
2022/07/28 01:58:51;;;;;;;9.18;2.08;;;;;;;18.98;47.59;101583.41;5031558;28;97276;-73
2022/07/28 02:01:20;;;;;;;6.55;1.80;;;;;;;18.97;47.62;101589.75;5032270;28;96935;-73
2022/07/28 02:03:50;;;;;;;5.50;2.55;;;;;;;18.97;47.67;101581.72;5028585;28;99459;-73
2022/07/28 02:06:19;;;;;;;9.20;1.90;;;;;;;18.98;47.34;101575.38;5023765;27;99594;-74
2022/07/28 02:08:48;;;;;;;4.75;1.67;;;;;;;19.18;46.63;101577.78;5032390;28;97303;-71
2022/07/28 02:13:59;;;;;;;11.07;1.95;;;;;;;18.98;47.50;101573.56;5031177;28;97333;-71
2022/07/28 02:16:27;;;;;;;5.00;1.67;;;;;;;18.98;45.62;101572.72;5021383;28;99135;-71
2022/07/28 02:18:57;;;;;;;4.53;1.30;;;;;;;18.87;45.64;101577.81;5031690;27;97202;-71
2022/07/28 02:21:25;;;;;;;8.48;1.80;;;;;;;18.77;47.37;101571.28;5027846;28;98272;-71
2022/07/28 02:23:54;;;;;;;9.30;1.90;;;;;;;18.76;47.69;101569.53;5029257;28;99240;-71
2022/07/28 02:26:27;;;;;;;5.32;1.52;;;;;;;18.78;48.26;101578.34;5030579;28;98808;-71
2022/07/28 02:28:56;;;;;;;7.45;1.70;;;;;;;18.72;48.47;101579.53;5031519;28;97302;-71
2022/07/28 02:31:26;;;;;;;3.55;1.23;;;;;;;18.82;48.62;101583.44;5027912;28;97600;-71
2022/07/28 02:33:58;;;;;;;8.70;1.73;;;;;;;18.61;48.90;101588.19;5026692;28;98921;-71
2022/07/28 02:36:28;;;;;;;6.47;1.95;;;;;;;18.73;46.15;101586.63;5029387;27;98997;-71
2022/07/28 02:38:57;;;;;;;7.15;1.73;;;;;;;18.76;46.53;101590.97;5030028;27;96796;-71
2022/07/28 02:41:27;;;;;;;6.82;1.73;;;;;;;18.89;46.82;101581.28;5030985;28;96966;-71
2022/07/28 02:43:58;;;;;;;3.72;1.65;;;;;;;18.94;45.70;101584.56;5027760;28;99164;-72
2022/07/28 02:46:28;;;;;;;4.88;1.63;;;;;;;18.87;45.51;101591.22;5028163;27;101367;-72
2022/07/28 02:49:03;;;;;;;7.25;1.75;;;;;;;18.74;47.11;101592.84;5028748;28;96728;-72
2022/07/28 02:51:31;;;;;;;8.25;2.50;;;;;;;18.63;48.58;101597.00;5026700;28;98608;-72
2022/07/28 02:53:59;;;;;;;5.10;1.80;;;;;;;18.74;48.43;101595.53;5030143;27;99404;-72
2022/07/28 02:56:27;;;;;;;6.15;1.55;;;;;;;18.61;48.79;101590.00;5030366;28;98982;-72
2022/07/28 02:58:54;;;;;;;6.82;1.42;;;;;;;18.72;48.73;101595.59;5032595;27;97384;-73
2022/07/28 03:01:22;;;;;;;6.82;1.60;;;;;;;18.64;48.84;101598.72;5028108;27;97606;-71
2022/07/28 03:03:49;;;;;;;10.30;2.30;;;;;;;18.63;48.96;101598.81;5032949;27;101690;-71
2022/07/28 03:06:17;;;;;;;8.05;1.90;;;;;;;18.47;49.48;101596.09;5035081;27;98110;-71
2022/07/28 03:08:44;;;;;;;4.82;1.52;;;;;;;18.33;50.04;101602.19;5033464;28;97538;-71
2022/07/28 03:11:13;;;;;;;5.57;2.00;;;;;;;18.47;49.03;101604.09;5035632;28;96930;-71
2022/07/28 03:13:39;;;;;;;6.85;1.80;;;;;;;18.61;48.86;101592.69;5035127;27;102180;-71
2022/07/28 03:16:07;;;;;;;4.90;1.52;;;;;;;18.50;49.15;101601.28;5031127;27;102166;-71
2022/07/28 03:18:33;;;;;;;8.40;2.30;;;;;;;18.59;49.30;101603.47;5035201;28;97087;-72
2022/07/28 03:21:00;;;;;;;6.68;1.40;;;;;;;18.65;48.97;101611.16;5034916;27;98748;-71
2022/07/28 03:23:32;;;;;;;8.50;2.42;;;;;;;18.39;50.05;101614.34;5034433;28;98906;-72
2022/07/28 03:26:05;;;;;;;4.45;1.50;;;;;;;18.53;49.61;101616.28;5033785;28;97689;-71
2022/07/28 03:28:33;;;;;;;9.18;2.13;;;;;;;18.44;49.90;101625.69;5034182;28;96872;-71
2022/07/28 03:31:05;;;;;;;6.32;1.90;;;;;;;18.23;50.31;101619.69;5031941;28;99607;-72
2022/07/28 03:33:32;;;;;;;7.35;1.80;;;;;;;18.21;50.26;101626.91;5028516;28;99244;-72
2022/07/28 03:36:02;;;;;;;6.28;2.00;;;;;;;18.11;50.69;101627.50;5029469;28;99021;-71
2022/07/28 03:38:36;;;;;;;4.38;1.65;;;;;;;18.11;50.97;101631.03;5032072;28;97116;-71
2022/07/28 03:41:04;;;;;;;7.20;1.65;;;;;;;18.15;51.12;101623.72;5031431;28;96908;-71
2022/07/28 03:43:34;;;;;;;5.70;1.60;;;;;;;18.02;51.63;101625.31;5032423;28;98937;-72
2022/07/28 03:46:01;;;;;;;5.30;1.90;;;;;;;17.96;51.74;101626.50;5030614;27;98826;-71
2022/07/28 03:48:32;;;;;;;6.90;2.08;;;;;;;17.97;52.12;101628.22;5032823;28;98251;-71
2022/07/28 03:50:58;;;;;;;5.00;1.95;;;;;;;18.10;51.95;101623.09;5031307;27;97468;-70
2022/07/28 03:53:28;;;;;;;9.60;2.10;;;;;;;18.16;52.12;101628.13;5032035;27;99316;-71
2022/07/28 03:55:56;;;;;;;9.10;1.63;;;;;;;18.25;51.81;101628.47;5028735;28;99193;-72
2022/07/28 03:58:25;;;;;;;5.78;1.80;;;;;;;18.36;51.47;101637.75;5032058;28;97569;-72
2022/07/28 04:00:51;;;;;;;5.05;1.70;;;;;;;18.17;51.96;101641.41;5029792;27;99068;-72
2022/07/28 04:03:19;;;;;;;12.65;2.03;;;;;;;18.38;51.69;101644.72;5032392;27;98713;-75
2022/07/28 04:05:46;;;;;;;3.05;1.63;;;;;;;18.40;51.73;101640.16;5029474;27;97712;-73
2022/07/28 04:08:12;;;;;;;5.65;1.60;;;;;;;18.48;51.75;101645.97;5029431;28;96794;-71
2022/07/28 04:10:39;;;;;;;5.32;1.98;;;;;;;18.40;51.84;101645.53;5032990;28;96792;-72
2022/07/28 04:13:07;;;;;;;9.30;2.35;;;;;;;18.61;51.39;101641.72;5031253;27;99847;-71
2022/07/28 04:15:34;;;;;;;8.02;1.75;;;;;;;18.76;51.28;101641.84;5029436;28;98843;-72
2022/07/28 04:18:04;;;;;;;7.95;1.50;;;;;;;18.66;51.15;101649.50;5031945;27;96799;-72
2022/07/28 04:20:31;;;;;;;12.23;2.30;;;;;;;18.64;51.27;101641.53;5031437;28;97536;-72
2022/07/28 04:22:57;;;;;;;6.88;1.92;;;;;;;19.01;50.32;101644.88;5027989;28;99003;-72
2022/07/28 04:25:25;;;;;;;7.50;1.90;;;;;;;19.07;49.11;101647.19;5023656;28;99232;-71
2022/07/28 04:27:53;;;;;;;7.80;2.40;;;;;;;19.44;47.71;101654.84;5027534;28;96786;-71
2022/07/28 04:30:24;;;;;;;13.15;2.45;;;;;;;19.36;47.42;101654.41;5031755;28;97324;-72
2022/07/28 04:32:52;;;;;;;17.85;2.70;;;;;;;19.72;46.71;101655.94;5028750;28;99383;-72
2022/07/28 04:35:19;;;;;;;12.60;3.75;;;;;;;19.93;46.17;101652.00;5030590;28;99327;-72
2022/07/28 04:37:47;;;;;;;15.45;4.50;;;;;;;19.82;46.00;101651.78;5030987;28;96731;-72
2022/07/28 04:40:14;;;;;;;7.65;2.72;;;;;;;19.80;45.40;101651.88;5033193;27;97451;-72
2022/07/28 04:42:42;;;;;;;13.25;3.28;;;;;;;19.99;45.42;101651.63;5031830;27;101511;-71
2022/07/28 04:45:11;;;;;;;14.52;2.30;;;;;;;20.11;44.69;101650.00;5029124;27;98985;-71
2022/07/28 04:47:39;;;;;;;11.90;2.30;;;;;;;20.42;43.92;101649.88;5027024;28;96816;-72
2022/07/28 04:50:08;;;;;;;11.23;1.92;;;;;;;20.47;43.95;101663.03;5030547;27;96881;-71
2022/07/28 04:52:35;;;;;;;14.88;2.20;;;;;;;20.39;44.32;101665.31;5031169;27;99696;-72
2022/07/28 04:55:02;;;;;;;17.95;3.42;;;;;;;20.42;44.08;101665.09;5030396;27;98980;-71
2022/07/28 04:57:28;;;;;;;8.30;2.42;;;;;;;20.67;43.95;101659.94;5030647;28;97379;-71
2022/07/28 04:59:55;;;;;;;12.45;2.53;;;;;;;20.92;43.46;101665.47;5031426;27;96871;-72
2022/07/28 05:02:21;;;;;;;10.20;2.45;;;;;;;20.76;43.63;101659.34;5028336;27;99538;-71
2022/07/28 05:04:49;;;;;;;11.55;2.10;;;;;;;21.09;43.15;101653.63;5021844;28;101409;-72
2022/07/28 05:07:16;;;;;;;12.95;2.00;;;;;;;20.98;43.14;101654.34;5030108;27;97961;-72
2022/07/28 05:09:42;;;;;;;8.73;2.05;;;;;;;20.99;42.70;101655.22;5031438;28;96796;-71
2022/07/28 05:12:09;;;;;;;9.27;1.90;;;;;;;21.02;42.59;101657.69;5031414;28;98091;-72
2022/07/28 05:14:35;;;;;;;5.88;1.65;;;;;;;21.11;42.26;101658.91;5029618;28;100284;-72
2022/07/28 05:17:02;;;;;;;7.00;1.90;;;;;;;20.92;42.83;101659.25;5032019;27;96716;-74
2022/07/28 05:19:29;;;;;;;9.98;1.80;;;;;;;20.95;42.83;101661.72;5035362;27;97209;-73
2022/07/28 05:21:56;;;;;;;11.68;2.35;;;;;;;20.81;42.98;101656.34;5030148;28;98647;-73
2022/07/28 05:24:23;;;;;;;5.63;2.13;;;;;;;21.53;41.90;101661.47;5029342;28;98771;-73
2022/07/28 05:26:49;;;;;;;5.68;1.90;;;;;;;21.55;41.41;101664.94;5029092;27;96845;-71
2022/07/28 05:29:16;;;;;;;8.52;1.60;;;;;;;21.83;41.18;101662.13;5030275;28;97131;-72
2022/07/28 05:31:42;;;;;;;8.68;1.90;;;;;;;21.60;41.48;101660.09;5028681;27;97667;-72
2022/07/28 05:34:09;;;;;;;10.63;1.70;;;;;;;21.53;41.44;101664.16;5028159;27;99090;-71
2022/07/28 05:36:35;;;;;;;12.85;2.55;;;;;;;21.54;41.73;101668.59;5025303;27;98753;-71
2022/07/28 05:39:03;;;;;;;10.80;2.30;;;;;;;21.33;41.86;101676.25;5032195;27;96897;-71
2022/07/28 05:41:30;;;;;;;11.45;1.90;;;;;;;21.14;42.44;101669.44;5026420;27;99179;-71
2022/07/28 05:43:57;;;;;;;11.68;2.15;;;;;;;21.62;41.92;101671.63;5031979;28;99558;-72
2022/07/28 05:46:24;;;;;;;6.40;1.50;;;;;;;22.02;40.71;101677.03;5022780;28;97468;-69
2022/07/28 05:48:50;;;;;;;4.95;1.80;;;;;;;22.22;39.78;101681.91;5030877;27;96924;-69
2022/07/28 05:51:17;;;;;;;8.30;1.67;;;;;;;22.45;38.71;101677.63;5031176;28;98905;-69
2022/07/28 05:53:43;;;;;;;7.88;1.60;;;;;;;22.61;38.30;101680.94;5030672;27;101013;-69
2022/07/28 05:56:12;;;;;;;5.78;1.17;;;;;;;22.66;37.46;101684.16;5027695;27;97111;-67
2022/07/28 05:58:38;;;;;;;14.27;1.65;;;;;;;22.44;37.52;101679.44;5031419;27;97325;-69
2022/07/28 06:01:05;;;;;;;13.73;2.60;;;;;;;22.37;37.96;101686.22;5029683;27;101967;-69
2022/07/28 06:03:33;;;;;;;12.13;2.20;;;;;;;21.96;38.59;101691.78;5030300;27;99114;-67
2022/07/28 06:06:01;;;;;;;9.95;2.85;;;;;;;22.02;38.64;101688.66;5024164;28;97468;-69
2022/07/28 06:08:28;;;;;;;10.85;2.13;;;;;;;22.22;38.57;101681.91;5031915;28;96821;-68
2022/07/28 06:11:07;;;;;;;8.02;1.90;;;;;;;22.46;38.07;101688.25;5029692;27;100199;-67
2022/07/28 06:13:35;;;;;;;3.67;1.50;;;;;;;22.35;38.31;101684.59;5026841;28;98785;-68
2022/07/28 06:16:02;;;;;;;8.27;2.05;;;;;;;22.38;38.10;101685.25;5026964;28;98413;-67
2022/07/28 06:18:28;;;;;;;8.15;1.73;;;;;;;21.45;39.48;101690.72;5024195;28;98499;-66
2022/07/28 06:20:55;;;;;;;5.93;1.80;;;;;;;21.79;38.94;101687.50;5029503;27;101173;-67
2022/07/28 06:23:22;;;;;;;7.88;1.88;;;;;;;22.52;38.09;101695.03;5026074;27;98888;-67
2022/07/28 06:25:49;;;;;;;12.75;1.80;;;;;;;23.46;35.19;101690.88;5025895;28;97449;-69
2022/07/28 06:28:17;;;;;;;6.28;1.67;;;;;;;23.80;34.74;101698.19;5028218;28;97340;-67
2022/07/28 06:30:45;;;;;;;7.05;1.70;;;;;;;23.53;34.93;101694.00;5029451;28;101214;-67
2022/07/28 06:33:12;;;;;;;8.98;1.52;;;;;;;23.78;34.41;101697.44;5030317;28;98802;-68
2022/07/28 06:35:38;;;;;;;8.15;1.80;;;;;;;23.88;34.35;101697.63;5029899;28;97051;-69
2022/07/28 06:38:05;;;;;;;7.72;1.83;;;;;;;23.84;33.86;101691.56;5027622;27;97351;-68
2022/07/28 06:40:31;;;;;;;7.65;1.25;;;;;;;24.13;33.47;101694.75;5028162;28;98907;-68
2022/07/28 06:42:58;;;;;;;5.97;1.30;;;;;;;24.25;33.38;101690.25;5029061;27;98849;-66
2022/07/28 06:45:24;;;;;;;10.00;1.67;;;;;;;24.08;33.99;101691.56;5032585;27;97034;-67
2022/07/28 06:47:53;;;;;;;5.97;1.10;;;;;;;24.33;33.68;101689.66;5030358;27;96813;-67
2022/07/28 06:50:21;;;;;;;15.80;1.85;;;;;;;24.41;33.21;101688.09;5029973;28;98253;-68
2022/07/28 06:52:47;;;;;;;8.43;1.50;;;;;;;24.67;32.95;101688.72;5025506;28;98721;-68
2022/07/28 06:55:15;;;;;;;7.50;2.42;;;;;;;24.63;33.00;101684.53;5031726;28;97064;-68
2022/07/28 06:57:44;;;;;;;9.68;2.08;;;;;;;24.07;33.24;101689.81;5030676;28;96948;-69
2022/07/28 07:00:13;;;;;;;6.75;1.40;;;;;;;24.03;33.36;101688.31;5030224;28;101152;-67
2022/07/28 07:02:43;;;;;;;8.48;1.60;;;;;;;23.67;34.21;101686.63;5031216;28;98162;-68
2022/07/28 07:05:12;;;;;;;5.13;1.52;;;;;;;23.57;34.21;101684.69;5030572;28;97261;-67
2022/07/28 07:07:39;;;;;;;8.45;1.65;;;;;;;23.63;34.71;101679.72;5027726;28;98028;-67
2022/07/28 07:10:07;;;;;;;8.80;1.50;;;;;;;23.60;34.34;101689.88;5029924;28;98958;-69
2022/07/28 07:12:34;;;;;;;10.48;1.60;;;;;;;23.57;34.56;101685.56;5031495;28;97475;-66
2022/07/28 07:15:01;;;;;;;12.98;1.40;;;;;;;23.06;34.97;101690.25;5031368;28;97457;-68
2022/07/28 07:17:27;;;;;;;9.07;1.83;;;;;;;23.47;34.78;101678.25;5029738;28;96832;-67
2022/07/28 07:19:54;;;;;;;6.68;1.50;;;;;;;23.55;34.50;101681.28;5030193;28;99324;-68
2022/07/28 07:22:22;;;;;;;5.47;1.48;;;;;;;23.74;34.12;101684.31;5031226;27;98176;-67
2022/07/28 07:24:48;;;;;;;7.00;1.60;;;;;;;23.92;33.86;101684.75;5031614;27;97070;-67
2022/07/28 07:27:15;;;;;;;8.82;1.48;;;;;;;24.05;33.47;101694.47;5030194;27;96963;-67
2022/07/28 07:29:41;;;;;;;9.35;1.58;;;;;;;24.41;32.87;101681.84;5028890;28;99513;-67
2022/07/28 07:32:08;;;;;;;7.75;1.50;;;;;;;24.67;32.97;101685.16;5030658;28;98847;-68
2022/07/28 07:34:34;;;;;;;8.77;1.48;;;;;;;24.88;32.32;101678.88;5031236;28;96801;-68
2022/07/28 07:37:01;;;;;;;13.02;1.63;;;;;;;24.58;32.71;101684.03;5029785;28;97619;-67
2022/07/28 07:39:29;;;;;;;5.97;1.27;;;;;;;25.25;31.57;101687.59;5029473;28;100997;-67
2022/07/28 07:41:56;;;;;;;10.30;1.50;;;;;;;25.44;31.58;101686.94;5027037;28;98801;-68
2022/07/28 07:44:22;;;;;;;7.35;1.75;;;;;;;25.58;31.69;101689.38;5029576;28;96794;-68
2022/07/28 07:46:49;;;;;;;7.57;1.33;;;;;;;25.65;31.35;101679.75;5029921;27;97876;-68
2022/07/28 07:49:17;;;;;;;9.07;1.92;;;;;;;25.83;31.16;101684.59;5029622;27;97707;-67
2022/07/28 07:51:46;;;;;;;7.95;1.42;;;;;;;25.44;31.50;101678.81;5034100;28;99283;-68
2022/07/28 07:54:13;;;;;;;5.63;1.42;;;;;;;25.36;31.66;101678.59;5033715;28;96950;-67
2022/07/28 07:56:41;;;;;;;9.88;1.30;;;;;;;25.25;32.14;101686.75;5032734;28;97620;-68
2022/07/28 07:59:08;;;;;;;4.53;1.00;;;;;;;25.15;31.92;101689.31;5031047;28;99404;-67
2022/07/28 08:01:34;;;;;;;3.10;1.08;;;;;;;25.31;31.02;101688.94;5032303;28;98190;-66
2022/07/28 08:04:01;;;;;;;5.30;1.10;;;;;;;25.29;30.84;101686.34;5019464;27;98485;-68
2022/07/28 08:06:27;;;;;;;6.82;1.60;;;;;;;25.36;31.09;101684.00;5028026;27;96980;-67
2022/07/28 08:08:54;;;;;;;4.78;1.20;;;;;;;25.57;30.62;101686.75;5032374;28;100885;-68
2022/07/28 08:11:21;;;;;;;9.90;1.63;;;;;;;25.88;30.51;101683.22;5033265;27;99443;-68
2022/07/28 08:13:49;;;;;;;7.85;1.10;;;;;;;26.12;29.74;101685.69;5033551;28;96723;-67
2022/07/28 08:16:16;;;;;;;6.28;1.25;;;;;;;26.20;29.49;101683.16;5032627;28;97155;-67
2022/07/28 08:18:43;;;;;;;5.45;1.85;;;;;;;26.13;30.09;101680.13;5030938;28;98254;-68
2022/07/28 08:21:11;;;;;;;7.57;1.83;;;;;;;26.32;29.95;101671.28;5031055;28;99279;-67
2022/07/28 08:23:38;;;;;;;6.60;1.30;;;;;;;26.33;29.42;101677.56;5033317;28;96838;-67
2022/07/28 08:26:05;;;;;;;4.70;1.38;;;;;;;26.05;29.67;101684.50;5031862;27;97103;-68
2022/07/28 08:28:32;;;;;;;9.30;4.03;;;;;;;25.90;30.10;101683.94;5029088;28;101604;-68
2022/07/28 08:31:00;;;;;;;5.60;1.23;;;;;;;25.53;30.16;101680.75;5030767;27;98982;-67
2022/07/28 08:33:26;;;;;;;5.85;1.42;;;;;;;25.59;30.46;101676.72;5031515;27;96667;-67
2022/07/28 08:35:53;;;;;;;7.53;2.03;;;;;;;25.68;30.74;101679.50;5032962;28;97100;-68
2022/07/28 08:38:20;;;;;;;8.23;1.60;;;;;;;25.86;30.07;101687.91;5025652;27;98907;-67
2022/07/28 08:40:49;;;;;;;5.80;1.50;;;;;;;25.71;29.99;101683.78;5033013;27;97519;-67
2022/07/28 08:43:28;;;;;;;6.40;1.35;;;;;;;25.79;30.13;101686.72;5032589;27;96873;-68
2022/07/28 08:45:57;;;;;;;5.93;1.00;;;;;;;25.64;29.76;101686.16;5028901;27;97114;-67
2022/07/28 08:48:29;;;;;;;8.40;1.33;;;;;;;25.88;28.29;101691.34;5030910;27;99246;-67
2022/07/28 08:51:00;;;;;;;7.68;1.42;;;;;;;26.35;28.21;101689.13;5031532;28;101728;-67
2022/07/28 08:53:28;;;;;;;4.80;1.20;;;;;;;26.26;28.83;101692.63;5029541;27;97029;-72
2022/07/28 08:55:59;;;;;;;3.95;1.10;;;;;;;25.26;29.97;101696.56;5032856;27;96776;-71
2022/07/28 08:58:26;;;;;;;5.18;1.27;;;;;;;25.75;29.69;101691.53;5031692;27;99066;-72
2022/07/28 09:00:53;;;;;;;4.78;1.25;;;;;;;26.00;29.01;101693.00;5030713;27;97714;-71
2022/07/28 09:03:20;;;;;;;9.23;1.40;;;;;;;26.38;28.50;101692.44;5033317;28;96726;-71
2022/07/28 09:05:49;;;;;;;6.55;1.20;;;;;;;26.30;28.28;101689.53;5033645;27;96885;-71
2022/07/28 09:08:17;;;;;;;7.68;1.10;;;;;;;26.41;28.18;101688.59;5031373;27;101488;-72
2022/07/28 09:10:43;;;;;;;5.47;1.40;;;;;;;26.77;28.07;101679.09;5030386;28;98851;-71
2022/07/28 09:13:10;;;;;;;6.40;1.30;;;;;;;26.92;27.49;101680.44;5031385;27;96722;-72
2022/07/28 09:15:37;;;;;;;8.45;1.48;;;;;;;26.82;27.81;101684.94;5033304;27;97292;-71
2022/07/28 09:18:04;;;;;;;3.30;1.13;;;;;;;26.49;28.12;101692.38;5030413;28;98974;-71
2022/07/28 09:20:30;;;;;;;9.75;1.30;;;;;;;26.72;27.89;101689.47;5032189;28;98729;-72
2022/07/28 09:23:01;;;;;;;4.40;1.25;;;;;;;26.45;27.84;101690.06;5033011;28;98576;-73
2022/07/28 09:25:29;;;;;;;7.43;1.30;;;;;;;26.17;28.38;101689.72;5032995;28;96983;-71
2022/07/28 09:27:56;;;;;;;4.97;1.20;;;;;;;26.32;28.36;101684.81;5024583;27;98318;-70
2022/07/28 09:30:30;;;;;;;6.78;1.60;;;;;;;26.09;28.79;101685.94;5024432;27;97202;-71
2022/07/28 09:33:21;;;;;;;8.43;1.20;;;;;;;26.71;28.24;101683.22;5031581;27;96778;-72
2022/07/28 09:35:50;;;;;;;7.47;1.40;;;;;;;26.58;28.21;101688.81;5014001;28;96718;-71
2022/07/28 09:38:20;;;;;;;5.22;1.20;;;;;;;26.49;28.12;101684.22;5029746;28;99104;-73
2022/07/28 09:40:58;;;;;;;5.43;1.30;;;;;;;26.82;27.76;101679.53;5031818;28;101343;-71
2022/07/28 09:43:35;;;;;;;5.10;1.42;;;;;;;26.62;27.08;101678.59;5031686;28;97552;-72
2022/07/28 09:46:06;;;;;;;10.18;1.52;;;;;;;27.07;26.99;101678.22;5028070;27;96946;-72
2022/07/28 09:48:33;;;;;;;7.95;1.42;;;;;;;27.30;27.05;101672.44;5024294;27;99185;-72
2022/07/28 09:51:12;;;;;;;4.47;1.02;;;;;;;26.98;27.25;101676.34;5030911;28;99249;-71
2022/07/28 09:53:41;;;;;;;5.88;1.10;;;;;;;26.53;28.01;101673.97;5027385;28;98062;-72
2022/07/28 09:56:09;;;;;;;6.78;1.63;;;;;;;26.68;27.98;101682.59;5030195;27;96797;-73
2022/07/28 09:58:39;;;;;;;4.78;1.23;;;;;;;26.80;27.61;101676.94;5029832;28;97285;-72
2022/07/28 10:01:07;;;;;;;7.25;1.50;;;;;;;27.19;27.29;101671.66;5031375;28;99139;-72
2022/07/28 10:03:37;;;;;;;7.85;1.60;;;;;;;27.01;27.10;101668.78;5031930;28;97133;-71
2022/07/28 10:06:08;;;;;;;4.95;1.10;;;;;;;26.95;27.27;101670.19;5030805;27;97295;-71
2022/07/28 10:08:45;;;;;;;6.25;1.38;;;;;;;26.59;27.42;101668.00;5032757;27;99645;-72
2022/07/28 10:11:13;;;;;;;6.13;1.70;;;;;;;26.35;27.62;101660.19;5031488;27;98842;-72
2022/07/28 10:13:55;;;;;;;4.47;1.20;;;;;;;26.46;28.42;101668.22;5031233;27;96776;-72
2022/07/28 10:16:23;;;;;;;5.25;1.17;;;;;;;26.14;28.45;101657.47;5034142;27;96998;-72
2022/07/28 10:18:50;;;;;;;6.72;1.75;;;;;;;25.85;29.08;101669.94;5029911;28;98072;-71
2022/07/28 10:21:17;;;;;;;4.93;1.23;;;;;;;25.89;28.55;101673.25;5031132;28;98471;-71
2022/07/28 10:23:49;;;;;;;6.70;1.45;;;;;;;26.18;28.62;101660.78;5033030;27;97071;-71
2022/07/28 10:26:16;;;;;;;6.00;1.40;;;;;;;25.92;28.74;101662.16;5027539;27;97158;-72
2022/07/28 10:28:48;;;;;;;6.25;1.63;;;;;;;25.82;28.52;101663.91;5028006;27;99565;-71
2022/07/28 10:31:25;;;;;;;6.68;1.40;;;;;;;25.82;28.74;101662.09;5032172;27;97328;-72
2022/07/28 10:33:54;;;;;;;6.78;1.42;;;;;;;26.36;28.00;101656.50;5030496;27;97264;-68
2022/07/28 10:36:23;;;;;;;6.95;1.63;;;;;;;26.77;27.45;101658.25;5032554;27;96994;-67
2022/07/28 10:39:06;;;;;;;7.30;1.55;;;;;;;27.08;27.36;101652.81;5030507;28;100357;-68
2022/07/28 10:41:40;;;;;;;8.38;1.25;;;;;;;27.30;26.63;101653.44;5031872;27;99073;-68
2022/07/28 10:44:14;;;;;;;8.07;1.48;;;;;;;27.35;27.06;101650.28;5032790;27;96818;-68
2022/07/28 10:46:57;;;;;;;4.85;1.02;;;;;;;26.85;27.46;101652.13;5030270;27;96914;-67
2022/07/28 10:49:28;;;;;;;4.53;1.48;;;;;;;26.72;27.32;101656.94;5031144;27;97672;-68
2022/07/28 10:52:04;;;;;;;3.67;1.30;;;;;;;26.73;27.74;101647.81;5030862;28;98216;-69
2022/07/28 10:54:38;;;;;;;3.95;1.48;;;;;;;26.62;27.53;101650.63;5031486;28;96679;-68
2022/07/28 10:57:07;;;;;;;8.85;1.20;;;;;;;26.83;27.37;101648.72;5030747;27;96835;-68
2022/07/28 10:59:54;;;;;;;5.57;1.20;;;;;;;26.81;27.07;101646.13;5031908;27;99011;-67
2022/07/28 11:02:45;;;;;;;5.20;1.40;;;;;;;27.29;26.55;101645.44;5029584;28;97553;-67
2022/07/28 11:05:33;;;;;;;2.80;1.27;;;;;;;27.01;27.33;101644.38;5030956;27;97032;-67
2022/07/28 11:08:02;;;;;;;5.22;1.02;;;;;;;26.74;27.17;101646.81;5026965;28;97250;-67
2022/07/28 11:10:43;;;;;;;5.75;1.17;;;;;;;27.04;27.02;101641.38;5030876;27;99420;-67
2022/07/28 11:13:24;;;;;;;5.95;1.10;;;;;;;27.18;26.84;101643.69;5032960;27;98036;-69
2022/07/28 11:15:50;;;;;;;3.45;1.23;;;;;;;26.81;27.13;101642.56;5027090;28;98032;-66
2022/07/28 11:18:17;;;;;;;4.68;0.93;;;;;;;26.85;27.39;101641.28;5028731;27;97331;-66
2022/07/28 11:21:10;;;;;;;6.40;1.40;;;;;;;27.02;26.88;101640.66;5030472;27;97767;-67
2022/07/28 11:23:42;;;;;;;4.32;1.20;;;;;;;27.20;26.88;101630.84;5030298;27;101103;-68
2022/07/28 11:26:33;;;;;;;13.63;2.05;;;;;;;26.98;26.82;101631.06;5031677;27;96831;-67
2022/07/28 11:29:15;;;;;;;2.83;1.20;;;;;;;25.83;28.33;101634.03;5030959;28;96906;-67
2022/07/28 11:32:04;;;;;;;11.38;1.20;;;;;;;25.83;28.38;101639.44;5028328;28;99077;-67
2022/07/28 11:35:07;;;;;;;4.65;1.42;;;;;;;26.12;27.84;101634.22;5033304;28;101140;-67
2022/07/28 11:38:07;;;;;;;4.38;0.80;;;;;;;25.85;27.86;101631.19;5032083;28;97204;-67